Time;durP1;ratioP1;P1;durP2;ratioP2;P2;SDS_P1;SDS_P2;PMS_P1;PMS_P2;Temp;Humidity;BMP_temperature;BMP_pressure;BME280_temperature;BME280_humidity;BME280_pressure;Samples;Min_cycle;Max_cycle;Signal;HPM_P1;HPM_P2
2024/01/01 05:00:41;;;;;;;6.22;3.20;;;7.10;99.90;;;;;;5736476;23;20424;-71
2024/01/01 05:03:07;;;;;;;9.63;3.05;;;7.10;99.90;;;;;;4944029;28;20213;-71
2024/01/01 05:05:34;;;;;;;5.10;3.67;;;7.10;99.90;;;;;;4941919;29;20213;-71
2024/01/01 05:08:01;;;;;;;3.50;2.78;;;7.10;99.90;;;;;;4942239;28;22047;-72
2024/01/01 05:10:28;;;;;;;2.28;2.10;;;7.10;99.90;;;;;;4943438;28;20656;-71
2024/01/01 05:12:54;;;;;;;3.35;3.05;;;7.10;99.90;;;;;;4942000;29;20217;-70
2024/01/01 05:15:21;;;;;;;3.40;2.40;;;7.20;99.90;;;;;;4939662;29;20214;-71
2024/01/01 05:17:49;;;;;;;3.72;2.30;;;7.20;99.90;;;;;;4939172;29;20212;-73
2024/01/01 05:20:16;;;;;;;2.85;2.35;;;7.20;99.90;;;;;;4940677;29;20209;-70
2024/01/01 05:22:43;;;;;;;4.45;2.13;;;7.20;99.90;;;;;;4934868;29;20217;-70
2024/01/01 05:25:09;;;;;;;4.22;2.10;;;7.20;99.90;;;;;;4942001;29;20205;-72
2024/01/01 05:27:36;;;;;;;8.85;3.72;;;7.20;99.90;;;;;;4938763;29;20202;-69
2024/01/01 05:30:04;;;;;;;5.57;2.70;;;7.20;99.90;;;;;;4937218;28;20257;-71
2024/01/01 05:32:31;;;;;;;3.53;1.98;;;7.20;99.90;;;;;;4936033;29;20237;-69
2024/01/01 05:34:59;;;;;;;9.18;2.65;;;7.20;99.90;;;;;;4942781;29;20217;-71
2024/01/01 05:37:26;;;;;;;5.95;2.42;;;7.20;99.90;;;;;;4940271;29;20213;-71
2024/01/01 05:39:52;;;;;;;5.90;2.78;;;7.20;99.90;;;;;;4947771;28;20209;-71
2024/01/01 05:42:19;;;;;;;2.58;2.35;;;7.20;99.90;;;;;;4935212;29;20733;-71
2024/01/01 05:44:46;;;;;;;6.97;5.30;;;7.20;99.90;;;;;;4941687;29;20240;-71
2024/01/01 05:47:12;;;;;;;7.40;3.55;;;7.20;99.90;;;;;;4942018;28;21362;-71
2024/01/01 05:49:39;;;;;;;5.45;2.33;;;7.20;99.90;;;;;;4946934;29;20695;-71
2024/01/01 05:52:07;;;;;;;6.03;2.83;;;7.20;99.90;;;;;;4943590;28;20240;-71
2024/01/01 05:54:34;;;;;;;5.38;2.00;;;7.20;99.90;;;;;;4943967;29;20205;-71
2024/01/01 05:57:00;;;;;;;5.05;2.72;;;7.30;99.90;;;;;;4938803;28;20220;-71
2024/01/01 05:59:27;;;;;;;2.58;2.38;;;7.20;99.90;;;;;;4940029;29;20206;-70
2024/01/01 06:01:54;;;;;;;2.40;2.20;;;7.30;99.90;;;;;;4936348;29;20244;-71
2024/01/01 06:04:20;;;;;;;5.97;2.63;;;7.30;99.90;;;;;;4938070;29;20217;-70
2024/01/01 06:06:47;;;;;;;3.67;3.35;;;7.30;99.90;;;;;;4944259;28;20209;-71
2024/01/01 06:09:16;;;;;;;3.30;2.92;;;7.30;99.90;;;;;;4936950;28;20221;-70
2024/01/01 06:11:43;;;;;;;6.88;1.92;;;7.30;99.90;;;;;;4939589;29;20641;-71
2024/01/01 06:14:10;;;;;;;2.03;1.92;;;7.30;99.90;;;;;;4936831;29;20217;-70
2024/01/01 06:16:36;;;;;;;4.30;2.67;;;7.30;99.90;;;;;;4936680;29;20225;-70
2024/01/01 06:19:04;;;;;;;5.18;2.70;;;7.30;99.90;;;;;;4936379;29;20210;-70
2024/01/01 06:21:30;;;;;;;2.30;1.95;;;7.30;99.90;;;;;;4941467;28;20233;-70
2024/01/01 06:23:57;;;;;;;2.33;2.22;;;7.30;99.90;;;;;;4945253;28;20224;-71
2024/01/01 06:26:25;;;;;;;2.72;2.45;;;7.30;99.90;;;;;;4946100;28;20202;-71
2024/01/01 06:28:52;;;;;;;2.63;2.30;;;7.30;99.90;;;;;;4944217;29;20218;-70
2024/01/01 06:31:18;;;;;;;4.45;3.15;;;7.30;99.90;;;;;;4944200;29;20248;-70
2024/01/01 06:33:45;;;;;;;3.90;2.47;;;7.40;99.90;;;;;;4945358;28;20205;-71
2024/01/01 06:36:12;;;;;;;6.95;3.05;;;7.40;99.90;;;;;;4941668;28;20221;-70
2024/01/01 06:38:39;;;;;;;6.70;2.70;;;7.40;99.90;;;;;;4938333;29;20213;-70
2024/01/01 06:41:06;;;;;;;2.75;2.45;;;7.30;99.90;;;;;;4948452;28;20225;-70
2024/01/01 06:43:34;;;;;;;6.95;2.78;;;7.40;99.90;;;;;;4933951;29;20212;-70
2024/01/01 06:46:01;;;;;;;4.00;2.80;;;7.40;99.90;;;;;;4934021;29;20597;-70
2024/01/01 06:48:28;;;;;;;3.13;2.90;;;7.40;99.90;;;;;;4947898;28;20205;-70
2024/01/01 06:50:55;;;;;;;2.53;2.33;;;7.40;99.90;;;;;;4933366;29;20230;-70
2024/01/01 06:53:21;;;;;;;5.18;2.42;;;7.40;99.90;;;;;;4941778;28;20218;-70
2024/01/01 06:55:48;;;;;;;2.78;2.58;;;7.40;99.90;;;;;;4943770;28;20791;-70
2024/01/01 06:58:15;;;;;;;2.88;2.78;;;7.40;99.90;;;;;;4934398;28;20217;-70
2024/01/01 07:00:43;;;;;;;4.03;2.75;;;7.40;99.90;;;;;;4944667;29;20236;-70
2024/01/01 07:03:10;;;;;;;2.13;1.75;;;7.30;99.90;;;;;;4949195;28;20205;-70
2024/01/01 07:05:36;;;;;;;2.08;1.70;;;7.30;99.90;;;;;;4940150;29;20702;-70
2024/01/01 07:08:05;;;;;;;5.15;3.00;;;7.30;99.90;;;;;;4941044;29;20292;-70
2024/01/01 07:10:31;;;;;;;6.72;2.88;;;7.30;99.90;;;;;;4937997;29;20229;-70
2024/01/01 07:12:58;;;;;;;2.50;1.60;;;7.40;99.90;;;;;;4941011;29;20362;-70
2024/01/01 07:15:25;;;;;;;7.65;3.22;;;7.40;99.90;;;;;;4939362;29;20213;-70
2024/01/01 07:17:53;;;;;;;2.85;1.58;;;7.40;99.90;;;;;;4948249;29;20208;-70
2024/01/01 07:20:19;;;;;;;2.50;2.30;;;7.40;99.90;;;;;;4940263;28;20328;-70
2024/01/01 07:22:46;;;;;;;2.55;1.88;;;7.50;99.90;;;;;;4935007;29;20202;-70
2024/01/01 07:25:13;;;;;;;3.50;3.30;;;7.50;99.90;;;;;;4940218;29;20210;-71
2024/01/01 07:27:40;;;;;;;2.40;2.22;;;7.50;99.90;;;;;;4936206;29;20209;-70
2024/01/01 07:30:08;;;;;;;3.80;2.90;;;7.50;99.90;;;;;;4939481;29;20273;-70
2024/01/01 07:32:34;;;;;;;1.20;1.20;;;7.50;99.90;;;;;;4938593;29;20229;-70
2024/01/01 07:35:03;;;;;;;2.72;2.00;;;7.60;99.90;;;;;;4943923;29;20268;-70
2024/01/01 07:37:29;;;;;;;2.22;2.13;;;7.50;99.90;;;;;;4939103;29;20579;-70
2024/01/01 07:39:56;;;;;;;2.40;1.75;;;7.50;99.90;;;;;;4938905;29;20237;-70
2024/01/01 07:42:23;;;;;;;2.08;1.75;;;7.60;99.90;;;;;;4938921;29;20270;-70
2024/01/01 07:44:49;;;;;;;3.85;1.85;;;7.60;99.90;;;;;;4944070;29;20217;-70
2024/01/01 07:47:16;;;;;;;3.10;2.50;;;7.60;99.90;;;;;;4941827;29;20212;-70
2024/01/01 07:49:44;;;;;;;2.08;1.88;;;7.60;99.90;;;;;;4940354;28;20624;-70
2024/01/01 07:52:12;;;;;;;2.58;2.35;;;7.70;99.90;;;;;;4941046;29;20549;-71
2024/01/01 07:54:39;;;;;;;3.95;2.22;;;7.60;99.90;;;;;;4941497;29;20205;-71
2024/01/01 07:57:06;;;;;;;1.50;1.40;;;7.60;99.90;;;;;;4940339;28;20225;-72
2024/01/01 07:59:33;;;;;;;1.17;1.10;;;7.70;99.90;;;;;;4943698;29;20243;-71
2024/01/01 08:02:00;;;;;;;2.88;1.45;;;7.70;99.90;;;;;;4937581;28;20251;-71
2024/01/01 08:04:27;;;;;;;1.55;1.20;;;7.70;99.90;;;;;;4943142;29;20691;-72
2024/01/01 08:06:54;;;;;;;2.20;2.10;;;7.70;99.90;;;;;;4945039;28;20217;-71
2024/01/01 08:09:22;;;;;;;2.67;1.35;;;7.70;99.90;;;;;;4942012;29;20225;-71
2024/01/01 08:11:48;;;;;;;1.80;1.55;;;7.60;99.90;;;;;;4941303;28;20241;-72
2024/01/01 08:14:15;;;;;;;2.47;1.70;;;7.60;99.90;;;;;;4939972;29;20320;-72
2024/01/01 08:16:42;;;;;;;3.10;2.50;;;7.60;99.90;;;;;;4942649;29;20212;-73
2024/01/01 08:19:09;;;;;;;2.15;2.05;;;7.70;99.90;;;;;;4948405;28;20213;-71
2024/01/01 08:21:36;;;;;;;3.92;2.70;;;7.70;99.90;;;;;;4939558;29;20221;-72
2024/01/01 08:24:03;;;;;;;5.60;1.90;;;7.70;99.90;;;;;;4942621;29;20206;-72
2024/01/01 08:26:31;;;;;;;2.17;1.35;;;7.60;99.90;;;;;;4951039;29;20210;-72
2024/01/01 08:28:58;;;;;;;5.18;3.03;;;7.60;99.90;;;;;;4950123;29;20571;-71
2024/01/01 08:31:24;;;;;;;3.22;1.65;;;7.50;99.90;;;;;;4944501;28;20337;-71
2024/01/01 08:33:51;;;;;;;7.40;2.00;;;7.50;99.90;;;;;;4940655;28;20589;-72
2024/01/01 08:36:19;;;;;;;1.80;1.70;;;7.50;99.90;;;;;;4951828;29;20213;-71
2024/01/01 08:38:46;;;;;;;1.23;1.20;;;7.50;99.90;;;;;;4947650;28;20205;-72
2024/01/01 08:41:12;;;;;;;4.40;1.95;;;7.50;99.90;;;;;;4949447;29;20348;-71
2024/01/01 08:43:40;;;;;;;2.22;2.13;;;7.50;99.90;;;;;;4943483;29;20216;-71
2024/01/01 08:46:08;;;;;;;6.05;1.80;;;7.50;99.90;;;;;;4945545;28;20806;-71
2024/01/01 08:48:34;;;;;;;3.15;1.70;;;7.50;99.90;;;;;;4945288;28;20205;-71
2024/01/01 08:51:02;;;;;;;4.40;1.70;;;7.50;99.90;;;;;;4946078;28;20234;-71
2024/01/01 08:53:29;;;;;;;1.67;0.85;;;7.50;99.90;;;;;;4946500;29;20205;-72
2024/01/01 08:55:55;;;;;;;1.20;1.00;;;7.50;99.90;;;;;;4942354;28;20213;-71
2024/01/01 08:58:22;;;;;;;1.98;1.40;;;7.50;99.90;;;;;;4945467;29;20659;-71
2024/01/01 09:00:50;;;;;;;1.25;0.95;;;7.50;99.90;;;;;;4944631;29;20224;-72
2024/01/01 09:03:17;;;;;;;3.88;1.77;;;7.50;99.90;;;;;;4946670;28;20232;-72
2024/01/01 09:05:44;;;;;;;0.95;0.95;;;7.60;99.90;;;;;;4951781;28;20206;-72
2024/01/01 09:08:11;;;;;;;4.13;3.65;;;7.60;99.90;;;;;;4941888;28;20221;-72
2024/01/01 09:10:37;;;;;;;14.23;8.45;;;7.60;99.90;;;;;;4944396;29;20233;-72
2024/01/01 09:13:04;;;;;;;9.68;7.28;;;7.60;99.90;;;;;;4942002;29;20206;-71
2024/01/01 09:15:31;;;;;;;5.53;4.10;;;7.70;99.90;;;;;;4942796;29;20214;-71
2024/01/01 09:17:59;;;;;;;4.22;3.20;;;7.70;99.90;;;;;;4943728;29;20217;-72
2024/01/01 09:20:26;;;;;;;6.88;3.28;;;7.80;99.90;;;;;;4944091;28;20205;-72
2024/01/01 09:22:53;;;;;;;2.78;2.33;;;7.80;99.90;;;;;;4940062;29;20210;-72
2024/01/01 09:25:19;;;;;;;3.45;3.13;;;7.90;99.90;;;;;;4950511;28;20217;-72
2024/01/01 09:27:47;;;;;;;5.40;4.90;;;8.00;99.90;;;;;;4942389;28;20214;-72
2024/01/01 09:30:14;;;;;;;1.95;1.83;;;8.10;99.90;;;;;;4942985;28;20309;-72
2024/01/01 09:32:41;;;;;;;2.85;1.95;;;8.20;99.90;;;;;;4940677;29;20210;-71
2024/01/01 09:35:09;;;;;;;3.35;1.70;;;8.30;99.90;;;;;;4942569;28;20217;-72
2024/01/01 09:37:37;;;;;;;1.10;1.10;;;8.40;99.90;;;;;;4939654;29;20217;-72
2024/01/01 09:40:04;;;;;;;1.40;1.17;;;8.40;99.90;;;;;;4946072;28;20708;-72
2024/01/01 09:42:31;;;;;;;2.45;1.92;;;8.40;99.90;;;;;;4950769;28;20222;-72
2024/01/01 09:44:58;;;;;;;1.55;1.52;;;8.50;99.90;;;;;;4937047;28;20218;-73
2024/01/01 09:47:24;;;;;;;7.10;3.63;;;8.50;99.90;;;;;;4948178;29;20207;-72
2024/01/01 09:49:51;;;;;;;2.28;1.60;;;8.50;99.90;;;;;;4943932;28;20215;-72
2024/01/01 09:52:19;;;;;;;1.70;1.60;;;8.50;99.90;;;;;;4940320;29;20610;-72
2024/01/01 09:54:46;;;;;;;1.20;1.20;;;8.60;99.90;;;;;;4950991;28;20214;-72
2024/01/01 09:57:13;;;;;;;1.75;1.75;;;8.60;99.90;;;;;;4948975;28;20245;-72
2024/01/01 09:59:40;;;;;;;7.82;1.95;;;8.60;99.90;;;;;;4940716;29;20563;-72
2024/01/01 10:02:09;;;;;;;2.92;2.00;;;8.50;99.90;;;;;;4943480;28;20241;-72
2024/01/01 10:04:36;;;;;;;2.45;2.28;;;8.50;99.90;;;;;;4938275;29;20297;-72
2024/01/01 10:07:04;;;;;;;1.80;1.70;;;8.50;99.90;;;;;;4938586;28;20207;-72
2024/01/01 10:09:32;;;;;;;2.00;2.00;;;8.50;99.90;;;;;;4942382;29;20209;-72
2024/01/01 10:12:10;;;;;;;5.07;2.00;;;8.60;99.90;;;;;;4939952;29;20318;-72
2024/01/01 10:14:45;;;;;;;3.33;1.70;;;8.50;99.90;;;;;;4948297;29;20206;-72
2024/01/01 10:17:13;;;;;;;3.40;3.10;;;8.60;99.90;;;;;;4942084;29;20212;-72
2024/01/01 10:19:50;;;;;;;2.03;1.90;;;8.60;99.90;;;;;;4948015;28;20220;-72
2024/01/01 10:22:18;;;;;;;1.95;1.85;;;8.60;99.90;;;;;;4937552;29;20559;-72
2024/01/01 10:24:46;;;;;;;3.83;3.70;;;8.60;99.90;;;;;;4940512;29;20207;-72
2024/01/01 10:27:17;;;;;;;3.35;1.77;;;8.60;99.90;;;;;;4947879;28;20214;-72
2024/01/01 10:29:46;;;;;;;2.65;2.55;;;8.60;99.90;;;;;;4950573;28;20232;-72
2024/01/01 10:32:17;;;;;;;2.67;2.60;;;8.50;99.90;;;;;;4942959;28;20763;-70
2024/01/01 10:34:45;;;;;;;1.70;1.30;;;8.50;99.90;;;;;;4941693;29;20207;-71
2024/01/01 10:37:13;;;;;;;2.45;2.28;;;8.50;99.90;;;;;;4945322;28;20209;-71
2024/01/01 10:39:42;;;;;;;2.95;2.10;;;8.50;99.90;;;;;;4941312;29;20214;-70
2024/01/01 10:42:10;;;;;;;2.33;1.75;;;8.40;99.90;;;;;;4946643;28;20299;-70
2024/01/01 10:44:37;;;;;;;1.67;1.25;;;8.40;99.90;;;;;;4946408;29;20229;-69
2024/01/01 10:47:08;;;;;;;2.92;1.30;;;8.40;99.90;;;;;;4948268;28;20221;-70
2024/01/01 10:49:36;;;;;;;4.35;1.70;;;8.40;99.90;;;;;;4940935;29;20206;-71
2024/01/01 10:52:20;;;;;;;4.70;1.60;;;8.30;99.90;;;;;;4946451;29;20238;-71
2024/01/01 10:55:13;;;;;;;3.00;2.75;;;8.40;99.90;;;;;;4937515;29;20213;-72
2024/01/01 10:57:59;;;;;;;2.20;2.10;;;8.30;99.90;;;;;;4936518;29;20692;-70
2024/01/01 11:00:34;;;;;;;2.60;2.40;;;8.30;99.90;;;;;;4941793;29;20207;-72
2024/01/01 11:03:03;;;;;;;2.90;2.80;;;8.40;99.90;;;;;;4944112;29;20210;-72
2024/01/01 11:05:34;;;;;;;1.60;1.50;;;8.50;99.90;;;;;;4935529;29;20219;-70
2024/01/01 11:08:01;;;;;;;5.45;2.22;;;8.50;99.90;;;;;;4941576;29;20352;-72
2024/01/01 11:10:35;;;;;;;2.00;1.90;;;8.60;99.90;;;;;;4939474;29;20207;-73
2024/01/01 11:13:03;;;;;;;2.08;1.90;;;8.70;99.90;;;;;;4943611;29;20210;-73
2024/01/01 11:15:40;;;;;;;1.27;1.25;;;8.70;99.90;;;;;;4935108;28;20219;-72
2024/01/01 11:18:12;;;;;;;4.30;2.25;;;8.70;99.90;;;;;;4944926;29;20210;-72
2024/01/01 11:20:50;;;;;;;2.50;1.60;;;8.80;99.90;;;;;;4939544;29;20234;-70
2024/01/01 11:23:40;;;;;;;2.88;2.47;;;8.80;99.90;;;;;;4944823;28;20220;-70
2024/01/01 11:26:34;;;;;;;4.53;2.28;;;8.90;99.90;;;;;;4935967;29;20299;-69
2024/01/01 11:29:26;;;;;;;3.35;3.05;;;8.90;99.90;;;;;;4942814;29;20215;-70
2024/01/01 11:32:05;;;;;;;6.38;5.75;;;8.90;99.90;;;;;;4937905;29;20281;-71
2024/01/01 11:34:37;;;;;;;2.65;2.42;;;8.90;99.90;;;;;;4939689;29;20219;-71
2024/01/01 11:37:06;;;;;;;3.80;1.92;;;8.80;99.90;;;;;;4942301;29;20218;-70
2024/01/01 11:39:36;;;;;;;1.55;1.45;;;8.70;99.90;;;;;;4934136;29;20210;-72
2024/01/01 11:42:09;;;;;;;2.55;1.95;;;8.70;99.90;;;;;;4943114;28;20330;-73
2024/01/01 11:44:44;;;;;;;2.17;1.88;;;8.70;99.90;;;;;;4945904;29;20626;-73
2024/01/01 11:47:18;;;;;;;2.63;1.20;;;8.60;99.90;;;;;;4942534;29;20219;-72
2024/01/01 11:49:57;;;;;;;2.05;1.42;;;8.60;99.90;;;;;;4947397;29;20681;-73
2024/01/01 11:52:24;;;;;;;4.93;1.75;;;8.60;99.90;;;;;;4943515;29;20325;-72
2024/01/01 11:54:54;;;;;;;3.40;3.08;;;8.60;99.90;;;;;;4948294;29;20233;-73
2024/01/01 11:57:23;;;;;;;4.10;2.30;;;8.60;99.90;;;;;;4950951;28;20217;-73
2024/01/01 12:00:02;;;;;;;1.85;1.75;;;8.60;99.90;;;;;;4943802;29;20577;-72
2024/01/01 12:02:32;;;;;;;5.20;4.07;;;8.60;99.90;;;;;;4946032;29;20316;-72
2024/01/01 12:05:01;;;;;;;6.50;3.85;;;8.60;99.90;;;;;;4951088;28;20221;-73
2024/01/01 12:07:35;;;;;;;9.93;5.07;;;8.60;99.90;;;;;;4944555;29;20215;-72
2024/01/01 12:10:17;;;;;;;6.22;4.05;;;8.60;99.90;;;;;;4950720;28;20206;-72
2024/01/01 12:13:03;;;;;;;3.58;2.50;;;8.60;99.90;;;;;;4946444;29;20231;-72
2024/01/01 12:15:33;;;;;;;3.72;1.58;;;8.70;99.90;;;;;;4940860;29;20232;-71
2024/01/01 12:18:12;;;;;;;2.42;2.17;;;8.70;99.90;;;;;;4941316;29;20205;-72
2024/01/01 12:20:39;;;;;;;1.75;1.65;;;8.70;99.90;;;;;;4939620;29;20308;-73
2024/01/01 12:23:13;;;;;;;4.00;1.30;;;8.70;99.90;;;;;;4946670;28;20369;-72
2024/01/01 12:25:41;;;;;;;3.55;1.65;;;8.80;99.90;;;;;;4948400;28;20285;-72
2024/01/01 12:28:10;;;;;;;2.05;1.83;;;8.80;99.90;;;;;;4942204;29;20302;-73
2024/01/01 12:30:43;;;;;;;1.33;1.20;;;8.80;99.90;;;;;;4944427;29;20294;-73
2024/01/01 12:33:18;;;;;;;2.53;1.92;;;8.70;99.90;;;;;;4945133;29;20256;-72
2024/01/01 12:35:48;;;;;;;1.80;1.30;;;8.70;99.90;;;;;;4938384;29;20259;-72
2024/01/01 12:38:15;;;;;;;1.95;1.85;;;8.70;99.90;;;;;;4947657;28;20233;-72
2024/01/01 12:40:42;;;;;;;7.28;3.63;;;8.70;99.90;;;;;;4941915;28;20245;-72
2024/01/01 12:43:16;;;;;;;2.83;2.15;;;8.80;99.90;;;;;;4944690;29;20238;-72
2024/01/01 12:45:44;;;;;;;3.60;2.05;;;8.80;99.90;;;;;;4944337;28;20273;-72
2024/01/01 12:48:11;;;;;;;5.13;2.13;;;8.80;99.90;;;;;;4940457;29;20217;-72
2024/01/01 12:50:38;;;;;;;9.43;4.45;;;8.80;99.90;;;;;;4940895;29;20226;-71
2024/01/01 12:53:06;;;;;;;5.10;3.67;;;8.80;99.90;;;;;;4935900;29;20616;-72
2024/01/01 12:55:39;;;;;;;6.35;4.00;;;8.80;99.90;;;;;;4943336;29;20206;-72
2024/01/01 12:58:07;;;;;;;8.25;4.25;;;8.90;99.90;;;;;;4935744;29;20214;-71
2024/01/01 13:00:36;;;;;;;6.75;3.75;;;8.90;99.90;;;;;;4943324;28;20245;-71
2024/01/01 13:03:06;;;;;;;10.10;7.57;;;8.90;99.90;;;;;;4940279;28;21037;-71
2024/01/01 13:05:36;;;;;;;9.77;5.45;;;9.00;99.90;;;;;;4938049;28;20246;-71
2024/01/01 13:08:12;;;;;;;6.47;4.40;;;9.00;99.90;;;;;;4943777;29;20259;-72
2024/01/01 13:10:48;;;;;;;4.63;3.72;;;9.00;99.90;;;;;;4944590;29;20275;-72
2024/01/01 13:13:18;;;;;;;3.22;2.58;;;9.10;99.90;;;;;;4942200;28;20243;-72
2024/01/01 13:15:47;;;;;;;2.42;2.22;;;9.10;99.90;;;;;;4946472;28;20570;-72
2024/01/01 13:18:18;;;;;;;5.88;4.13;;;9.10;99.90;;;;;;4942127;29;20234;-70
2024/01/01 13:20:47;;;;;;;2.10;1.95;;;9.10;99.90;;;;;;4939190;28;20576;-70
2024/01/01 13:23:17;;;;;;;6.57;3.40;;;9.10;99.90;;;;;;4944701;29;20651;-71
2024/01/01 13:25:51;;;;;;;1.92;1.73;;;9.10;99.90;;;;;;4943552;29;20219;-70
2024/01/01 13:28:22;;;;;;;3.08;2.75;;;9.00;99.90;;;;;;4944358;28;20217;-70
2024/01/01 13:30:50;;;;;;;2.78;2.53;;;9.00;99.90;;;;;;4939119;29;20648;-71
2024/01/01 13:33:27;;;;;;;2.65;2.40;;;9.00;99.90;;;;;;4944743;28;20231;-72
2024/01/01 13:35:58;;;;;;;4.20;3.67;;;9.00;99.90;;;;;;4936781;29;20295;-70
2024/01/01 13:38:27;;;;;;;4.35;2.60;;;9.00;99.90;;;;;;4940616;29;20220;-70
2024/01/01 13:41:00;;;;;;;2.35;1.60;;;9.00;99.90;;;;;;4939399;29;20252;-71
2024/01/01 13:43:29;;;;;;;2.38;2.28;;;8.90;99.90;;;;;;4941382;29;20236;-70
2024/01/01 13:46:04;;;;;;;5.57;3.20;;;8.90;99.90;;;;;;4939613;28;20301;-72
2024/01/01 13:48:35;;;;;;;9.40;2.55;;;8.90;99.90;;;;;;4939924;29;20281;-71
2024/01/01 13:51:06;;;;;;;6.88;4.72;;;8.90;99.90;;;;;;4940300;29;20227;-71
2024/01/01 13:53:39;;;;;;;16.58;7.15;;;8.80;99.90;;;;;;4939445;28;20239;-72
2024/01/01 13:56:21;;;;;;;2.58;2.38;;;8.80;99.90;;;;;;4940251;29;20214;-72
2024/01/01 13:58:49;;;;;;;4.30;3.70;;;8.80;99.90;;;;;;4939098;28;20687;-72
2024/01/01 14:01:17;;;;;;;2.13;2.00;;;8.80;99.90;;;;;;4939311;29;20263;-72
2024/01/01 14:03:51;;;;;;;12.25;5.88;;;8.80;99.90;;;;;;4945669;28;20202;-72
2024/01/01 14:06:21;;;;;;;15.48;8.35;;;8.80;99.90;;;;;;4945539;28;20213;-72
2024/01/01 14:09:08;;;;;;;2.35;2.20;;;8.80;99.90;;;;;;4940955;29;20642;-72
2024/01/01 14:11:48;;;;;;;8.48;3.15;;;8.80;99.90;;;;;;4940414;29;20259;-71
2024/01/01 14:14:24;;;;;;;2.90;2.80;;;8.80;99.90;;;;;;4945969;29;20273;-71
2024/01/01 14:16:54;;;;;;;2.30;2.20;;;8.80;99.90;;;;;;4943759;29;20210;-72
2024/01/01 14:19:25;;;;;;;2.42;2.33;;;8.70;99.90;;;;;;4938076;28;20221;-72
2024/01/01 14:22:03;;;;;;;2.65;2.50;;;8.70;99.90;;;;;;4946794;28;20249;-71
2024/01/01 14:24:31;;;;;;;4.57;3.90;;;8.70;99.90;;;;;;4940961;28;20557;-71
2024/01/01 14:27:03;;;;;;;2.65;2.45;;;8.60;99.90;;;;;;4943340;29;20220;-71
2024/01/01 14:29:37;;;;;;;2.35;2.05;;;8.60;99.90;;;;;;4948133;28;20210;-72
2024/01/01 14:32:16;;;;;;;2.38;2.15;;;8.60;99.90;;;;;;4944104;29;20235;-72
2024/01/01 14:34:51;;;;;;;2.72;2.60;;;8.50;99.90;;;;;;4940856;29;20256;-71
2024/01/01 14:37:17;;;;;;;2.60;2.30;;;8.50;99.90;;;;;;4943099;29;20214;-72
2024/01/01 14:39:44;;;;;;;5.50;3.10;;;8.40;99.90;;;;;;4950289;28;20217;-73
2024/01/01 14:42:11;;;;;;;3.00;2.90;;;8.40;99.90;;;;;;4944965;28;20645;-73
2024/01/01 14:44:38;;;;;;;2.28;2.08;;;8.30;99.90;;;;;;4944220;29;20274;-72
2024/01/01 14:47:06;;;;;;;3.08;2.42;;;8.30;99.90;;;;;;4942997;28;20592;-72
2024/01/01 14:49:33;;;;;;;3.20;2.95;;;8.20;99.90;;;;;;4939155;29;20214;-72
2024/01/01 14:52:02;;;;;;;2.42;2.22;;;8.20;99.90;;;;;;4943078;28;20240;-72
2024/01/01 14:54:29;;;;;;;1.60;1.50;;;8.20;99.90;;;;;;4939967;29;20665;-72
2024/01/01 14:56:56;;;;;;;1.75;1.52;;;8.10;99.90;;;;;;4941989;29;20694;-72
2024/01/01 14:59:22;;;;;;;3.40;2.90;;;8.10;99.90;;;;;;4941728;29;20209;-72
2024/01/01 15:01:49;;;;;;;6.38;1.80;;;8.10;99.90;;;;;;4940402;29;20276;-72
2024/01/01 15:04:16;;;;;;;1.73;1.65;;;8.00;99.90;;;;;;4937084;29;20210;-72
2024/01/01 15:06:43;;;;;;;3.65;2.80;;;8.00;99.90;;;;;;4940560;29;20660;-72
2024/01/01 15:09:11;;;;;;;2.25;2.05;;;8.00;99.90;;;;;;4939660;28;20218;-72
2024/01/01 15:11:38;;;;;;;2.47;2.28;;;8.00;99.90;;;;;;4945104;29;20233;-72
2024/01/01 15:14:05;;;;;;;1.88;1.88;;;7.90;99.90;;;;;;4948031;29;20646;-72
2024/01/01 15:16:32;;;;;;;1.63;1.52;;;7.90;99.90;;;;;;4941330;28;20225;-72
2024/01/01 15:18:59;;;;;;;1.45;1.25;;;7.90;99.90;;;;;;4935993;29;20206;-72
2024/01/01 15:21:26;;;;;;;2.38;2.17;;;7.80;99.90;;;;;;4939015;28;20260;-72
2024/01/01 15:23:54;;;;;;;1.75;1.75;;;7.80;99.90;;;;;;4950683;28;20575;-72
2024/01/01 15:26:22;;;;;;;3.63;2.15;;;7.80;99.90;;;;;;4935829;28;20638;-72
2024/01/01 15:28:49;;;;;;;4.82;2.30;;;7.80;99.90;;;;;;4933773;29;20301;-72
2024/01/01 15:31:17;;;;;;;8.70;6.50;;;7.80;99.90;;;;;;4937917;29;20611;-72
2024/01/01 15:33:45;;;;;;;5.00;3.35;;;7.70;99.90;;;;;;4936521;28;20314;-73
2024/01/01 15:36:12;;;;;;;5.03;2.60;;;7.80;99.90;;;;;;4940382;29;20264;-72
2024/01/01 15:38:39;;;;;;;8.07;2.90;;;7.80;99.90;;;;;;4945891;28;20209;-72
2024/01/01 15:41:07;;;;;;;14.63;4.43;;;7.80;99.90;;;;;;4942774;29;20269;-72
2024/01/01 15:43:35;;;;;;;6.40;4.30;;;7.70;99.90;;;;;;4938780;28;20205;-72
2024/01/01 15:46:04;;;;;;;3.65;3.40;;;7.70;99.90;;;;;;4934463;29;20210;-72
2024/01/01 15:48:31;;;;;;;2.75;2.53;;;7.70;99.90;;;;;;4938800;29;20214;-72
2024/01/01 15:51:01;;;;;;;2.85;2.63;;;7.70;99.90;;;;;;4941108;28;20312;-72
2024/01/01 15:53:28;;;;;;;3.33;3.15;;;7.70;99.90;;;;;;4944640;28;20229;-72
2024/01/01 15:55:54;;;;;;;8.60;5.60;;;7.70;99.90;;;;;;4937876;28;20213;-72
2024/01/01 15:58:21;;;;;;;5.03;4.50;;;7.70;99.90;;;;;;4940766;29;20233;-72
2024/01/01 16:00:49;;;;;;;5.15;3.60;;;7.70;99.90;;;;;;4943522;28;20244;-73
2024/01/01 16:03:16;;;;;;;3.63;3.13;;;7.60;99.90;;;;;;4943775;29;20232;-72
2024/01/01 16:05:43;;;;;;;7.63;2.85;;;7.60;99.90;;;;;;4939415;29;20579;-72
2024/01/01 16:08:10;;;;;;;2.45;2.35;;;7.60;99.90;;;;;;4940389;29;20202;-72
2024/01/01 16:10:37;;;;;;;7.07;5.28;;;7.60;99.90;;;;;;4941340;28;20574;-73
2024/01/01 16:13:04;;;;;;;6.18;3.80;;;7.60;99.90;;;;;;4935270;28;20284;-72
2024/01/01 16:15:30;;;;;;;3.78;3.50;;;7.60;99.90;;;;;;4940740;29;20217;-72
2024/01/01 16:17:58;;;;;;;3.67;3.20;;;7.60;99.90;;;;;;4943684;28;20202;-73
2024/01/01 16:20:25;;;;;;;4.03;3.40;;;7.70;99.90;;;;;;4940841;29;20664;-72
2024/01/01 16:22:53;;;;;;;6.47;3.20;;;7.60;99.90;;;;;;4939690;29;20212;-72
2024/01/01 16:25:20;;;;;;;3.50;2.00;;;7.60;99.90;;;;;;4941540;29;20242;-72
2024/01/01 16:27:47;;;;;;;3.17;2.00;;;7.60;99.90;;;;;;4935471;29;20217;-72
2024/01/01 16:30:14;;;;;;;1.30;1.23;;;7.60;99.90;;;;;;4938693;29;20269;-73
2024/01/01 16:32:41;;;;;;;1.65;1.65;;;7.60;99.90;;;;;;4942241;28;20233;-71
2024/01/01 16:35:10;;;;;;;1.75;1.48;;;7.60;99.90;;;;;;4938928;29;20240;-72
2024/01/01 16:37:37;;;;;;;1.95;1.85;;;7.60;99.90;;;;;;4939091;29;20245;-72
2024/01/01 16:40:04;;;;;;;1.67;1.58;;;7.60;99.90;;;;;;4945235;28;20206;-72
2024/01/01 16:42:32;;;;;;;1.20;1.20;;;7.60;99.90;;;;;;4941400;29;20259;-72
2024/01/01 16:44:58;;;;;;;1.65;1.55;;;7.60;99.90;;;;;;4941719;29;20206;-72
2024/01/01 16:47:25;;;;;;;1.35;1.35;;;7.60;99.90;;;;;;4938762;29;21074;-72
2024/01/01 16:49:52;;;;;;;1.70;1.60;;;7.70;99.90;;;;;;4945143;29;20856;-71
2024/01/01 16:52:19;;;;;;;1.55;1.45;;;7.70;99.90;;;;;;4941141;28;20225;-72
2024/01/01 16:54:46;;;;;;;1.80;1.77;;;7.70;99.90;;;;;;4941925;29;20556;-72
2024/01/01 16:57:13;;;;;;;2.40;2.20;;;7.70;99.90;;;;;;4942436;29;20210;-72
2024/01/01 16:59:40;;;;;;;2.03;1.92;;;7.70;99.90;;;;;;4945503;29;20205;-72
2024/01/01 17:02:07;;;;;;;2.42;2.05;;;7.70;99.90;;;;;;4938406;29;20258;-72
2024/01/01 17:04:33;;;;;;;3.22;2.65;;;7.70;99.90;;;;;;4937264;29;20202;-72
2024/01/01 17:07:00;;;;;;;1.92;1.83;;;7.70;99.90;;;;;;4938037;29;20218;-72
2024/01/01 17:09:28;;;;;;;2.78;2.33;;;7.80;99.90;;;;;;4946545;29;20198;-72
2024/01/01 17:11:55;;;;;;;1.75;1.75;;;7.80;99.90;;;;;;4946769;29;20229;-72
2024/01/01 17:14:22;;;;;;;4.90;2.10;;;7.80;99.90;;;;;;4940800;28;20233;-72
2024/01/01 17:16:50;;;;;;;2.08;1.58;;;7.80;99.90;;;;;;4949592;29;20224;-72
2024/01/01 17:19:17;;;;;;;4.15;2.25;;;7.80;99.90;;;;;;4946919;28;20640;-72
2024/01/01 17:21:44;;;;;;;3.30;1.42;;;7.80;99.90;;;;;;4941671;29;20260;-72
2024/01/01 17:24:11;;;;;;;1.33;1.33;;;7.80;99.90;;;;;;4944958;28;20197;-72
2024/01/01 17:26:39;;;;;;;2.15;2.05;;;7.70;99.90;;;;;;4943592;28;20205;-72
2024/01/01 17:29:06;;;;;;;3.22;1.67;;;7.80;99.90;;;;;;4941409;28;20225;-72
2024/01/01 17:31:32;;;;;;;4.78;4.20;;;7.70;99.90;;;;;;4941844;29;20309;-72
2024/01/01 17:33:59;;;;;;;2.60;2.05;;;7.70;99.90;;;;;;4941032;29;20703;-72
2024/01/01 17:36:29;;;;;;;1.40;1.33;;;7.70;99.90;;;;;;4944067;29;20236;-72
2024/01/01 17:38:56;;;;;;;1.30;1.20;;;7.70;99.90;;;;;;4943685;29;20561;-72
2024/01/01 17:41:22;;;;;;;2.70;1.23;;;7.70;99.90;;;;;;4947685;28;20320;-72
2024/01/01 17:43:52;;;;;;;1.30;1.20;;;7.70;99.90;;;;;;4937579;28;20205;-72
2024/01/01 17:46:18;;;;;;;1.20;1.20;;;7.70;99.90;;;;;;4940024;28;20256;-72
2024/01/01 17:48:45;;;;;;;1.92;1.30;;;7.70;99.90;;;;;;4940225;29;20210;-72
2024/01/01 17:51:12;;;;;;;5.47;1.77;;;7.70;99.90;;;;;;4951203;29;20596;-72
2024/01/01 17:53:39;;;;;;;3.88;1.58;;;7.70;99.90;;;;;;4946364;28;20232;-72
2024/01/01 17:56:07;;;;;;;1.70;1.60;;;7.70;99.90;;;;;;4946478;29;20234;-75
2024/01/01 17:58:35;;;;;;;1.92;1.75;;;7.60;99.90;;;;;;4946518;28;20563;-71
2024/01/01 18:01:04;;;;;;;1.85;1.75;;;7.60;99.90;;;;;;4940906;28;20233;-71
2024/01/01 18:03:30;;;;;;;1.02;1.00;;;7.60;99.90;;;;;;4937964;28;20558;-72
2024/01/01 18:05:57;;;;;;;1.33;1.10;;;7.50;99.90;;;;;;4941035;29;20213;-72